sensor_id;sensor_type;location;lat;lon;timestamp;P1;durP1;ratioP1;P2;durP2;ratioP2
56653;SDS011;45096;52.302;4.634;2023-05-03T00:00:21;1.85;;;1.75;;
56653;SDS011;45096;52.302;4.634;2023-05-03T00:02:46;1.70;;;1.60;;
56653;SDS011;45096;52.302;4.634;2023-05-03T00:05:12;1.50;;;1.40;;
56653;SDS011;45096;52.302;4.634;2023-05-03T00:07:40;1.60;;;1.60;;
56653;SDS011;45096;52.302;4.634;2023-05-03T00:10:06;2.28;;;2.13;;
56653;SDS011;45096;52.302;4.634;2023-05-03T00:12:32;1.70;;;1.42;;
56653;SDS011;45096;52.302;4.634;2023-05-03T00:14:58;2.17;;;1.55;;
56653;SDS011;45096;52.302;4.634;2023-05-03T00:17:23;2.20;;;1.40;;
56653;SDS011;45096;52.302;4.634;2023-05-03T00:19:49;1.63;;;1.50;;
56653;SDS011;45096;52.302;4.634;2023-05-03T00:22:14;1.40;;;1.30;;
56653;SDS011;45096;52.302;4.634;2023-05-03T00:24:41;1.88;;;1.42;;
56653;SDS011;45096;52.302;4.634;2023-05-03T00:27:06;4.40;;;2.20;;
56653;SDS011;45096;52.302;4.634;2023-05-03T00:29:32;1.48;;;1.40;;
56653;SDS011;45096;52.302;4.634;2023-05-03T00:31:57;2.45;;;1.48;;
56653;SDS011;45096;52.302;4.634;2023-05-03T00:34:22;2.47;;;1.75;;
56653;SDS011;45096;52.302;4.634;2023-05-03T00:36:48;2.47;;;1.45;;
56653;SDS011;45096;52.302;4.634;2023-05-03T00:39:13;2.50;;;1.63;;
56653;SDS011;45096;52.302;4.634;2023-05-03T00:41:40;1.63;;;1.50;;
56653;SDS011;45096;52.302;4.634;2023-05-03T00:44:05;1.60;;;1.50;;
56653;SDS011;45096;52.302;4.634;2023-05-03T00:46:31;1.33;;;1.23;;
56653;SDS011;45096;52.302;4.634;2023-05-03T00:48:56;1.50;;;1.50;;
56653;SDS011;45096;52.302;4.634;2023-05-03T00:51:22;1.30;;;1.30;;
56653;SDS011;45096;52.302;4.634;2023-05-03T00:53:47;1.48;;;1.38;;
56653;SDS011;45096;52.302;4.634;2023-05-03T00:56:13;2.53;;;1.80;;
56653;SDS011;45096;52.302;4.634;2023-05-03T00:58:44;1.35;;;1.20;;
56653;SDS011;45096;52.302;4.634;2023-05-03T01:01:09;1.60;;;1.50;;
56653;SDS011;45096;52.302;4.634;2023-05-03T01:03:35;1.77;;;1.70;;
56653;SDS011;45096;52.302;4.634;2023-05-03T01:06:05;1.83;;;1.70;;
56653;SDS011;45096;52.302;4.634;2023-05-03T01:08:35;1.48;;;1.35;;
56653;SDS011;45096;52.302;4.634;2023-05-03T01:11:04;1.52;;;1.35;;
56653;SDS011;45096;52.302;4.634;2023-05-03T01:13:33;1.50;;;1.40;;
56653;SDS011;45096;52.302;4.634;2023-05-03T01:16:08;1.67;;;1.58;;
56653;SDS011;45096;52.302;4.634;2023-05-03T01:18:37;2.47;;;1.45;;
56653;SDS011;45096;52.302;4.634;2023-05-03T01:21:04;1.70;;;1.65;;
56653;SDS011;45096;52.302;4.634;2023-05-03T01:23:32;1.83;;;1.73;;
56653;SDS011;45096;52.302;4.634;2023-05-03T01:26:12;2.35;;;1.95;;
56653;SDS011;45096;52.302;4.634;2023-05-03T01:28:38;1.50;;;1.40;;
56653;SDS011;45096;52.302;4.634;2023-05-03T01:31:04;1.52;;;1.42;;
56653;SDS011;45096;52.302;4.634;2023-05-03T01:33:31;1.50;;;1.40;;
56653;SDS011;45096;52.302;4.634;2023-05-03T01:36:12;1.50;;;1.40;;
56653;SDS011;45096;52.302;4.634;2023-05-03T01:38:40;3.40;;;2.03;;
56653;SDS011;45096;52.302;4.634;2023-05-03T01:41:09;6.03;;;2.08;;
56653;SDS011;45096;52.302;4.634;2023-05-03T01:43:36;2.10;;;1.42;;
56653;SDS011;45096;52.302;4.634;2023-05-03T01:46:02;3.40;;;1.50;;
56653;SDS011;45096;52.302;4.634;2023-05-03T01:48:28;2.13;;;1.73;;
56653;SDS011;45096;52.302;4.634;2023-05-03T01:50:53;1.65;;;1.55;;
56653;SDS011;45096;52.302;4.634;2023-05-03T01:53:18;2.28;;;2.03;;
56653;SDS011;45096;52.302;4.634;2023-05-03T01:55:44;1.60;;;1.50;;
56653;SDS011;45096;52.302;4.634;2023-05-03T01:58:11;2.58;;;2.47;;
56653;SDS011;45096;52.302;4.634;2023-05-03T02:00:36;2.22;;;2.13;;
56653;SDS011;45096;52.302;4.634;2023-05-03T02:03:02;3.47;;;1.77;;
56653;SDS011;45096;52.302;4.634;2023-05-03T02:05:27;1.70;;;1.60;;
56653;SDS011;45096;52.302;4.634;2023-05-03T02:07:53;2.05;;;1.90;;
56653;SDS011;45096;52.302;4.634;2023-05-03T02:10:18;1.48;;;1.48;;
56653;SDS011;45096;52.302;4.634;2023-05-03T02:12:43;1.90;;;1.80;;
56653;SDS011;45096;52.302;4.634;2023-05-03T02:15:10;1.95;;;1.85;;
56653;SDS011;45096;52.302;4.634;2023-05-03T02:17:36;4.03;;;1.80;;
56653;SDS011;45096;52.302;4.634;2023-05-03T02:20:02;1.80;;;1.70;;
56653;SDS011;45096;52.302;4.634;2023-05-03T02:22:27;2.80;;;2.08;;
56653;SDS011;45096;52.302;4.634;2023-05-03T02:24:53;2.00;;;1.88;;
56653;SDS011;45096;52.302;4.634;2023-05-03T02:27:18;2.50;;;2.22;;
56653;SDS011;45096;52.302;4.634;2023-05-03T02:29:44;2.33;;;1.83;;
56653;SDS011;45096;52.302;4.634;2023-05-03T02:32:10;2.03;;;1.65;;
56653;SDS011;45096;52.302;4.634;2023-05-03T02:34:37;2.05;;;1.95;;
56653;SDS011;45096;52.302;4.634;2023-05-03T02:37:02;2.28;;;2.10;;
56653;SDS011;45096;52.302;4.634;2023-05-03T02:39:28;2.13;;;1.98;;
56653;SDS011;45096;52.302;4.634;2023-05-03T02:41:53;2.08;;;1.92;;
56653;SDS011;45096;52.302;4.634;2023-05-03T02:44:19;2.42;;;2.22;;
56653;SDS011;45096;52.302;4.634;2023-05-03T02:46:44;2.28;;;2.08;;
56653;SDS011;45096;52.302;4.634;2023-05-03T02:49:11;2.60;;;2.40;;
56653;SDS011;45096;52.302;4.634;2023-05-03T02:51:36;2.17;;;2.08;;
56653;SDS011;45096;52.302;4.634;2023-05-03T02:54:02;2.30;;;2.13;;
56653;SDS011;45096;52.302;4.634;2023-05-03T02:56:27;2.40;;;2.20;;
56653;SDS011;45096;52.302;4.634;2023-05-03T02:58:53;4.15;;;1.95;;
56653;SDS011;45096;52.302;4.634;2023-05-03T03:01:18;2.53;;;2.33;;
56653;SDS011;45096;52.302;4.634;2023-05-03T03:03:44;2.03;;;1.92;;
56653;SDS011;45096;52.302;4.634;2023-05-03T03:06:11;3.00;;;2.10;;
56653;SDS011;45096;52.302;4.634;2023-05-03T03:08:36;3.08;;;2.42;;
56653;SDS011;45096;52.302;4.634;2023-05-03T03:11:02;1.85;;;1.73;;
56653;SDS011;45096;52.302;4.634;2023-05-03T03:13:28;2.97;;;2.30;;
56653;SDS011;45096;52.302;4.634;2023-05-03T03:15:53;2.20;;;2.10;;
56653;SDS011;45096;52.302;4.634;2023-05-03T03:18:18;3.50;;;2.47;;
56653;SDS011;45096;52.302;4.634;2023-05-03T03:20:44;2.72;;;2.47;;
56653;SDS011;45096;52.302;4.634;2023-05-03T03:23:11;2.75;;;2.38;;
56653;SDS011;45096;52.302;4.634;2023-05-03T03:25:36;3.13;;;2.40;;
56653;SDS011;45096;52.302;4.634;2023-05-03T03:28:02;2.47;;;2.33;;
56653;SDS011;45096;52.302;4.634;2023-05-03T03:30:27;2.50;;;2.30;;
56653;SDS011;45096;52.302;4.634;2023-05-03T03:32:53;2.83;;;2.63;;
56653;SDS011;45096;52.302;4.634;2023-05-03T03:35:18;2.88;;;2.58;;
56653;SDS011;45096;52.302;4.634;2023-05-03T03:37:44;2.97;;;2.78;;
56653;SDS011;45096;52.302;4.634;2023-05-03T03:40:11;3.67;;;2.58;;
56653;SDS011;45096;52.302;4.634;2023-05-03T03:42:37;3.83;;;2.88;;
56653;SDS011;45096;52.302;4.634;2023-05-03T03:45:03;2.53;;;2.33;;
56653;SDS011;45096;52.302;4.634;2023-05-03T03:47:29;3.15;;;2.45;;
56653;SDS011;45096;52.302;4.634;2023-05-03T03:49:54;2.28;;;2.15;;
56653;SDS011;45096;52.302;4.634;2023-05-03T03:52:20;2.72;;;2.53;;
56653;SDS011;45096;52.302;4.634;2023-05-03T03:54:45;2.50;;;2.30;;
56653;SDS011;45096;52.302;4.634;2023-05-03T03:57:12;2.65;;;2.47;;
56653;SDS011;45096;52.302;4.634;2023-05-03T03:59:37;2.50;;;2.30;;
56653;SDS011;45096;52.302;4.634;2023-05-03T04:02:03;2.75;;;2.65;;
56653;SDS011;45096;52.302;4.634;2023-05-03T04:04:28;2.33;;;2.17;;
56653;SDS011;45096;52.302;4.634;2023-05-03T04:06:54;2.97;;;2.25;;
56653;SDS011;45096;52.302;4.634;2023-05-03T04:09:19;2.63;;;2.40;;
56653;SDS011;45096;52.302;4.634;2023-05-03T04:11:44;2.85;;;2.65;;
56653;SDS011;45096;52.302;4.634;2023-05-03T04:14:11;3.08;;;2.45;;
56653;SDS011;45096;52.302;4.634;2023-05-03T04:16:37;2.95;;;2.70;;
56653;SDS011;45096;52.302;4.634;2023-05-03T04:19:02;3.70;;;2.45;;
56653;SDS011;45096;52.302;4.634;2023-05-03T04:21:28;2.40;;;2.17;;
56653;SDS011;45096;52.302;4.634;2023-05-03T04:23:53;2.50;;;2.00;;
56653;SDS011;45096;52.302;4.634;2023-05-03T04:26:19;2.20;;;2.00;;
56653;SDS011;45096;52.302;4.634;2023-05-03T04:28:44;2.90;;;2.55;;
56653;SDS011;45096;52.302;4.634;2023-05-03T04:31:11;3.35;;;2.60;;
56653;SDS011;45096;52.302;4.634;2023-05-03T04:33:37;2.55;;;2.35;;
56653;SDS011;45096;52.302;4.634;2023-05-03T04:36:02;4.65;;;2.78;;
56653;SDS011;45096;52.302;4.634;2023-05-03T04:38:28;3.17;;;2.45;;
56653;SDS011;45096;52.302;4.634;2023-05-03T04:40:53;2.90;;;2.65;;
56653;SDS011;45096;52.302;4.634;2023-05-03T04:43:19;2.90;;;2.60;;
56653;SDS011;45096;52.302;4.634;2023-05-03T04:45:44;5.45;;;2.90;;
56653;SDS011;45096;52.302;4.634;2023-05-03T04:48:11;2.42;;;2.22;;
56653;SDS011;45096;52.302;4.634;2023-05-03T04:50:36;2.20;;;2.00;;
56653;SDS011;45096;52.302;4.634;2023-05-03T04:53:02;2.38;;;2.25;;
56653;SDS011;45096;52.302;4.634;2023-05-03T04:55:27;2.88;;;2.53;;
56653;SDS011;45096;52.302;4.634;2023-05-03T04:57:54;3.00;;;2.63;;
56653;SDS011;45096;52.302;4.634;2023-05-03T05:00:19;3.47;;;2.42;;
56653;SDS011;45096;52.302;4.634;2023-05-03T05:02:45;2.53;;;2.28;;
56653;SDS011;45096;52.302;4.634;2023-05-03T05:05:12;2.85;;;2.30;;
56653;SDS011;45096;52.302;4.634;2023-05-03T05:07:37;2.58;;;2.38;;
56653;SDS011;45096;52.302;4.634;2023-05-03T05:10:03;2.20;;;2.08;;
56653;SDS011;45096;52.302;4.634;2023-05-03T05:12:29;3.20;;;2.35;;
56653;SDS011;45096;52.302;4.634;2023-05-03T05:14:54;2.53;;;2.28;;
56653;SDS011;45096;52.302;4.634;2023-05-03T05:17:20;2.35;;;2.08;;
56653;SDS011;45096;52.302;4.634;2023-05-03T05:19:45;2.25;;;2.05;;
56653;SDS011;45096;52.302;4.634;2023-05-03T05:22:12;2.05;;;1.92;;
56653;SDS011;45096;52.302;4.634;2023-05-03T05:24:38;3.03;;;2.30;;
56653;SDS011;45096;52.302;4.634;2023-05-03T05:27:03;2.10;;;1.90;;
56653;SDS011;45096;52.302;4.634;2023-05-03T05:29:28;2.03;;;1.92;;
56653;SDS011;45096;52.302;4.634;2023-05-03T05:31:54;2.50;;;2.25;;
56653;SDS011;45096;52.302;4.634;2023-05-03T05:34:19;1.90;;;1.80;;
56653;SDS011;45096;52.302;4.634;2023-05-03T05:36:45;1.88;;;1.77;;
56653;SDS011;45096;52.302;4.634;2023-05-03T05:39:12;2.67;;;2.40;;
56653;SDS011;45096;52.302;4.634;2023-05-03T05:41:37;2.20;;;2.00;;
56653;SDS011;45096;52.302;4.634;2023-05-03T05:44:03;3.00;;;2.00;;
56653;SDS011;45096;52.302;4.634;2023-05-03T05:46:28;1.95;;;1.83;;
56653;SDS011;45096;52.302;4.634;2023-05-03T05:48:54;2.08;;;1.80;;
56653;SDS011;45096;52.302;4.634;2023-05-03T05:51:19;2.03;;;1.90;;
56653;SDS011;45096;52.302;4.634;2023-05-03T05:53:45;2.00;;;1.90;;
56653;SDS011;45096;52.302;4.634;2023-05-03T05:56:11;2.88;;;2.25;;
56653;SDS011;45096;52.302;4.634;2023-05-03T05:58:37;2.35;;;1.75;;
56653;SDS011;45096;52.302;4.634;2023-05-03T06:01:02;2.00;;;1.88;;
56653;SDS011;45096;52.302;4.634;2023-05-03T06:03:28;4.00;;;1.70;;
56653;SDS011;45096;52.302;4.634;2023-05-03T06:05:54;2.28;;;1.58;;
56653;SDS011;45096;52.302;4.634;2023-05-03T06:08:19;1.90;;;1.80;;
56653;SDS011;45096;52.302;4.634;2023-05-03T06:10:45;1.85;;;1.75;;
56653;SDS011;45096;52.302;4.634;2023-05-03T06:13:11;3.38;;;1.75;;
56653;SDS011;45096;52.302;4.634;2023-05-03T06:15:37;2.13;;;1.50;;
56653;SDS011;45096;52.302;4.634;2023-05-03T06:18:02;1.83;;;1.73;;
56653;SDS011;45096;52.302;4.634;2023-05-03T06:20:28;2.05;;;1.63;;
56653;SDS011;45096;52.302;4.634;2023-05-03T06:22:53;1.80;;;1.63;;
56653;SDS011;45096;52.302;4.634;2023-05-03T06:25:19;1.65;;;1.55;;
56653;SDS011;45096;52.302;4.634;2023-05-03T06:27:44;2.72;;;1.77;;
56653;SDS011;45096;52.302;4.634;2023-05-03T06:30:11;2.08;;;1.58;;
56653;SDS011;45096;52.302;4.634;2023-05-03T06:32:37;1.38;;;1.35;;
56653;SDS011;45096;52.302;4.634;2023-05-03T06:35:03;2.08;;;1.52;;
56653;SDS011;45096;52.302;4.634;2023-05-03T06:37:29;1.60;;;1.50;;
56653;SDS011;45096;52.302;4.634;2023-05-03T06:39:54;1.50;;;1.35;;
56653;SDS011;45096;52.302;4.634;2023-05-03T06:42:20;1.48;;;1.25;;
56653;SDS011;45096;52.302;4.634;2023-05-03T06:44:45;1.55;;;0.95;;
56653;SDS011;45096;52.302;4.634;2023-05-03T06:47:12;2.03;;;1.67;;
56653;SDS011;45096;52.302;4.634;2023-05-03T06:49:37;2.30;;;1.42;;
56653;SDS011;45096;52.302;4.634;2023-05-03T06:52:03;2.85;;;1.30;;
56653;SDS011;45096;52.302;4.634;2023-05-03T06:54:29;2.38;;;1.38;;
56653;SDS011;45096;52.302;4.634;2023-05-03T06:56:54;2.78;;;1.27;;
56653;SDS011;45096;52.302;4.634;2023-05-03T06:59:20;3.35;;;1.40;;
56653;SDS011;45096;52.302;4.634;2023-05-03T07:01:45;1.55;;;1.45;;
56653;SDS011;45096;52.302;4.634;2023-05-03T07:04:12;1.13;;;1.13;;
56653;SDS011;45096;52.302;4.634;2023-05-03T07:06:37;1.65;;;1.50;;
56653;SDS011;45096;52.302;4.634;2023-05-03T07:09:03;1.40;;;1.20;;
56653;SDS011;45096;52.302;4.634;2023-05-03T07:11:28;1.10;;;1.10;;
56653;SDS011;45096;52.302;4.634;2023-05-03T07:13:53;2.30;;;0.80;;
56653;SDS011;45096;52.302;4.634;2023-05-03T07:16:19;1.63;;;1.48;;
56653;SDS011;45096;52.302;4.634;2023-05-03T07:18:44;1.58;;;1.25;;
56653;SDS011;45096;52.302;4.634;2023-05-03T07:21:11;2.05;;;1.10;;
56653;SDS011;45096;52.302;4.634;2023-05-03T07:23:37;3.20;;;1.10;;
56653;SDS011;45096;52.302;4.634;2023-05-03T07:26:02;1.33;;;1.33;;
56653;SDS011;45096;52.302;4.634;2023-05-03T07:28:28;1.40;;;1.30;;
56653;SDS011;45096;52.302;4.634;2023-05-03T07:30:53;0.90;;;0.90;;
56653;SDS011;45096;52.302;4.634;2023-05-03T07:33:19;1.25;;;1.20;;
56653;SDS011;45096;52.302;4.634;2023-05-03T07:35:44;2.17;;;1.17;;
56653;SDS011;45096;52.302;4.634;2023-05-03T07:38:11;1.65;;;1.10;;
56653;SDS011;45096;52.302;4.634;2023-05-03T07:40:37;1.88;;;1.63;;
56653;SDS011;45096;52.302;4.634;2023-05-03T07:43:02;1.42;;;1.30;;
56653;SDS011;45096;52.302;4.634;2023-05-03T07:45:28;3.03;;;1.10;;
56653;SDS011;45096;52.302;4.634;2023-05-03T07:47:54;1.42;;;1.10;;
56653;SDS011;45096;52.302;4.634;2023-05-03T07:50:19;2.00;;;1.10;;
56653;SDS011;45096;52.302;4.634;2023-05-03T07:52:45;2.83;;;1.48;;
56653;SDS011;45096;52.302;4.634;2023-05-03T07:55:12;4.90;;;1.30;;
56653;SDS011;45096;52.302;4.634;2023-05-03T07:57:37;2.72;;;1.60;;
56653;SDS011;45096;52.302;4.634;2023-05-03T08:00:03;1.98;;;1.60;;
56653;SDS011;45096;52.302;4.634;2023-05-03T08:02:29;1.35;;;1.35;;
56653;SDS011;45096;52.302;4.634;2023-05-03T08:04:54;1.15;;;1.15;;
56653;SDS011;45096;52.302;4.634;2023-05-03T08:07:20;2.72;;;1.20;;
56653;SDS011;45096;52.302;4.634;2023-05-03T08:09:45;3.05;;;1.40;;
56653;SDS011;45096;52.302;4.634;2023-05-03T08:12:12;1.85;;;1.08;;
56653;SDS011;45096;52.302;4.634;2023-05-03T08:14:37;1.52;;;1.40;;
56653;SDS011;45096;52.302;4.634;2023-05-03T08:17:03;3.78;;;1.10;;
56653;SDS011;45096;52.302;4.634;2023-05-03T08:19:28;1.63;;;1.50;;
56653;SDS011;45096;52.302;4.634;2023-05-03T08:21:53;1.50;;;1.25;;
56653;SDS011;45096;52.302;4.634;2023-05-03T08:24:19;1.40;;;1.27;;
56653;SDS011;45096;52.302;4.634;2023-05-03T08:26:44;3.40;;;1.15;;
56653;SDS011;45096;52.302;4.634;2023-05-03T08:29:11;1.40;;;1.30;;
56653;SDS011;45096;52.302;4.634;2023-05-03T08:31:37;1.60;;;1.40;;
56653;SDS011;45096;52.302;4.634;2023-05-03T08:34:02;1.42;;;1.08;;
56653;SDS011;45096;52.302;4.634;2023-05-03T08:36:28;2.13;;;1.20;;
56653;SDS011;45096;52.302;4.634;2023-05-03T08:38:53;4.28;;;1.50;;
56653;SDS011;45096;52.302;4.634;2023-05-03T08:41:20;2.70;;;1.23;;
56653;SDS011;45096;52.302;4.634;2023-05-03T08:43:47;3.63;;;1.30;;
56653;SDS011;45096;52.302;4.634;2023-05-03T08:46:18;2.22;;;1.40;;
56653;SDS011;45096;52.302;4.634;2023-05-03T08:48:44;2.15;;;1.48;;
56653;SDS011;45096;52.302;4.634;2023-05-03T08:51:11;2.45;;;1.25;;
56653;SDS011;45096;52.302;4.634;2023-05-03T08:53:38;1.80;;;1.38;;
56653;SDS011;45096;52.302;4.634;2023-05-03T08:56:06;1.50;;;1.50;;
56653;SDS011;45096;52.302;4.634;2023-05-03T08:58:33;1.58;;;1.52;;
56653;SDS011;45096;52.302;4.634;2023-05-03T09:01:02;4.90;;;1.60;;
56653;SDS011;45096;52.302;4.634;2023-05-03T09:03:29;1.50;;;1.40;;
56653;SDS011;45096;52.302;4.634;2023-05-03T09:05:55;2.90;;;1.45;;
56653;SDS011;45096;52.302;4.634;2023-05-03T09:08:20;1.08;;;1.08;;
56653;SDS011;45096;52.302;4.634;2023-05-03T09:10:46;1.38;;;1.27;;
56653;SDS011;45096;52.302;4.634;2023-05-03T09:13:11;2.78;;;1.55;;
56653;SDS011;45096;52.302;4.634;2023-05-03T09:15:37;2.00;;;1.20;;
56653;SDS011;45096;52.302;4.634;2023-05-03T09:18:09;1.52;;;1.42;;
56653;SDS011;45096;52.302;4.634;2023-05-03T09:20:40;2.30;;;1.45;;
56653;SDS011;45096;52.302;4.634;2023-05-03T09:23:06;2.08;;;1.60;;
56653;SDS011;45096;52.302;4.634;2023-05-03T09:25:39;3.38;;;1.60;;
56653;SDS011;45096;52.302;4.634;2023-05-03T09:28:05;1.63;;;1.52;;
56653;SDS011;45096;52.302;4.634;2023-05-03T09:30:30;1.33;;;1.27;;
56653;SDS011;45096;52.302;4.634;2023-05-03T09:32:56;1.60;;;1.52;;
56653;SDS011;45096;52.302;4.634;2023-05-03T09:35:21;1.60;;;1.48;;
56653;SDS011;45096;52.302;4.634;2023-05-03T09:37:48;2.25;;;2.05;;
56653;SDS011;45096;52.302;4.634;2023-05-03T09:40:14;1.70;;;1.60;;
56653;SDS011;45096;52.302;4.634;2023-05-03T09:42:40;4.30;;;2.10;;
56653;SDS011;45096;52.302;4.634;2023-05-03T09:45:06;1.55;;;1.45;;
56653;SDS011;45096;52.302;4.634;2023-05-03T09:47:32;2.70;;;1.55;;
56653;SDS011;45096;52.302;4.634;2023-05-03T09:50:13;2.40;;;2.20;;
56653;SDS011;45096;52.302;4.634;2023-05-03T09:52:39;3.85;;;1.80;;
56653;SDS011;45096;52.302;4.634;2023-05-03T09:55:06;2.08;;;1.80;;
56653;SDS011;45096;52.302;4.634;2023-05-03T09:57:32;1.98;;;1.85;;
56653;SDS011;45096;52.302;4.634;2023-05-03T09:59:57;1.90;;;1.80;;
56653;SDS011;45096;52.302;4.634;2023-05-03T10:02:23;3.45;;;1.90;;
56653;SDS011;45096;52.302;4.634;2023-05-03T10:04:49;3.55;;;2.20;;
56653;SDS011;45096;52.302;4.634;2023-05-03T10:07:16;1.63;;;1.55;;
56653;SDS011;45096;52.302;4.634;2023-05-03T10:09:42;2.08;;;1.95;;
56653;SDS011;45096;52.302;4.634;2023-05-03T10:12:11;2.30;;;2.10;;
56653;SDS011;45096;52.302;4.634;2023-05-03T10:14:36;2.83;;;1.80;;
56653;SDS011;45096;52.302;4.634;2023-05-03T10:17:05;3.38;;;2.00;;
56653;SDS011;45096;52.302;4.634;2023-05-03T10:19:33;1.70;;;1.60;;
56653;SDS011;45096;52.302;4.634;2023-05-03T10:22:02;1.90;;;1.67;;
56653;SDS011;45096;52.302;4.634;2023-05-03T10:24:28;3.22;;;1.55;;
56653;SDS011;45096;52.302;4.634;2023-05-03T10:26:54;2.95;;;1.63;;
56653;SDS011;45096;52.302;4.634;2023-05-03T10:32:26;2.35;;;1.60;;
56653;SDS011;45096;52.302;4.634;2023-05-03T10:34:55;1.92;;;1.80;;
56653;SDS011;45096;52.302;4.634;2023-05-03T10:37:21;3.50;;;2.00;;
56653;SDS011;45096;52.302;4.634;2023-05-03T10:39:51;1.85;;;1.75;;
56653;SDS011;45096;52.302;4.634;2023-05-03T10:42:16;4.22;;;1.65;;
56653;SDS011;45096;52.302;4.634;2023-05-03T10:44:50;2.17;;;2.08;;
56653;SDS011;45096;52.302;4.634;2023-05-03T10:47:17;2.08;;;1.98;;
56653;SDS011;45096;52.302;4.634;2023-05-03T10:49:43;2.63;;;1.92;;
56653;SDS011;45096;52.302;4.634;2023-05-03T10:55:12;3.22;;;1.90;;
56653;SDS011;45096;52.302;4.634;2023-05-03T10:57:38;2.15;;;1.95;;
56653;SDS011;45096;52.302;4.634;2023-05-03T11:00:11;2.22;;;1.80;;
56653;SDS011;45096;52.302;4.634;2023-05-03T11:02:38;3.13;;;2.00;;
56653;SDS011;45096;52.302;4.634;2023-05-03T11:05:09;2.53;;;1.90;;
56653;SDS011;45096;52.302;4.634;2023-05-03T11:07:36;3.25;;;1.73;;
56653;SDS011;45096;52.302;4.634;2023-05-03T11:10:14;1.73;;;1.63;;
56653;SDS011;45096;52.302;4.634;2023-05-03T11:12:40;3.35;;;1.70;;
56653;SDS011;45096;52.302;4.634;2023-05-03T11:15:06;5.80;;;2.30;;
56653;SDS011;45096;52.302;4.634;2023-05-03T11:17:34;3.42;;;1.70;;
56653;SDS011;45096;52.302;4.634;2023-05-03T11:20:00;3.13;;;1.60;;
56653;SDS011;45096;52.302;4.634;2023-05-03T11:22:25;1.70;;;1.60;;
56653;SDS011;45096;52.302;4.634;2023-05-03T11:24:50;2.20;;;2.00;;
56653;SDS011;45096;52.302;4.634;2023-05-03T11:27:22;3.90;;;2.30;;
56653;SDS011;45096;52.302;4.634;2023-05-03T11:29:48;2.35;;;2.08;;
56653;SDS011;45096;52.302;4.634;2023-05-03T11:32:14;3.78;;;2.50;;
56653;SDS011;45096;52.302;4.634;2023-05-03T11:34:40;2.88;;;1.88;;
56653;SDS011;45096;52.302;4.634;2023-05-03T11:37:07;1.38;;;1.38;;
56653;SDS011;45096;52.302;4.634;2023-05-03T11:39:32;2.67;;;2.13;;
56653;SDS011;45096;52.302;4.634;2023-05-03T11:42:01;1.85;;;1.75;;
56653;SDS011;45096;52.302;4.634;2023-05-03T11:44:27;1.90;;;1.75;;
56653;SDS011;45096;52.302;4.634;2023-05-03T11:46:53;2.47;;;2.38;;
56653;SDS011;45096;52.302;4.634;2023-05-03T11:49:20;2.13;;;1.90;;
56653;SDS011;45096;52.302;4.634;2023-05-03T11:51:45;1.90;;;1.80;;
56653;SDS011;45096;52.302;4.634;2023-05-03T11:54:11;2.30;;;2.10;;
56653;SDS011;45096;52.302;4.634;2023-05-03T11:56:36;4.43;;;2.42;;
56653;SDS011;45096;52.302;4.634;2023-05-03T11:59:02;2.10;;;2.00;;
56653;SDS011;45096;52.302;4.634;2023-05-03T12:01:27;3.95;;;1.88;;
56653;SDS011;45096;52.302;4.634;2023-05-03T12:03:54;2.92;;;2.58;;
56653;SDS011;45096;52.302;4.634;2023-05-03T12:06:22;6.97;;;2.97;;
56653;SDS011;45096;52.302;4.634;2023-05-03T12:08:48;2.25;;;2.15;;
56653;SDS011;45096;52.302;4.634;2023-05-03T12:11:14;3.25;;;2.30;;
56653;SDS011;45096;52.302;4.634;2023-05-03T12:13:39;4.53;;;2.08;;
56653;SDS011;45096;52.302;4.634;2023-05-03T12:16:05;4.57;;;2.30;;
56653;SDS011;45096;52.302;4.634;2023-05-03T12:18:43;2.58;;;1.95;;
56653;SDS011;45096;52.302;4.634;2023-05-03T12:21:09;4.45;;;2.50;;
56653;SDS011;45096;52.302;4.634;2023-05-03T12:23:36;3.55;;;2.20;;
56653;SDS011;45096;52.302;4.634;2023-05-03T12:26:02;4.47;;;2.42;;
56653;SDS011;45096;52.302;4.634;2023-05-03T12:28:27;4.85;;;2.45;;
56653;SDS011;45096;52.302;4.634;2023-05-03T12:30:53;4.25;;;2.85;;
56653;SDS011;45096;52.302;4.634;2023-05-03T12:33:19;4.88;;;2.30;;
56653;SDS011;45096;52.302;4.634;2023-05-03T12:35:44;2.03;;;1.90;;
56653;SDS011;45096;52.302;4.634;2023-05-03T12:38:11;2.38;;;2.20;;
56653;SDS011;45096;52.302;4.634;2023-05-03T12:40:37;2.42;;;2.30;;
56653;SDS011;45096;52.302;4.634;2023-05-03T12:43:03;4.00;;;2.10;;
56653;SDS011;45096;52.302;4.634;2023-05-03T12:45:28;3.65;;;1.85;;
56653;SDS011;45096;52.302;4.634;2023-05-03T12:47:54;3.85;;;2.05;;
56653;SDS011;45096;52.302;4.634;2023-05-03T12:50:19;2.55;;;2.35;;
56653;SDS011;45096;52.302;4.634;2023-05-03T12:52:45;2.13;;;2.00;;
56653;SDS011;45096;52.302;4.634;2023-05-03T12:55:10;2.00;;;1.70;;
56653;SDS011;45096;52.302;4.634;2023-05-03T12:57:37;2.00;;;1.85;;
56653;SDS011;45096;52.302;4.634;2023-05-03T13:00:03;3.28;;;2.40;;
56653;SDS011;45096;52.302;4.634;2023-05-03T13:02:29;2.30;;;1.77;;
56653;SDS011;45096;52.302;4.634;2023-05-03T13:04:55;1.77;;;1.67;;
56653;SDS011;45096;52.302;4.634;2023-05-03T13:07:21;3.08;;;2.13;;
56653;SDS011;45096;52.302;4.634;2023-05-03T13:09:46;1.90;;;1.80;;
56653;SDS011;45096;52.302;4.634;2023-05-03T13:12:12;2.20;;;2.05;;
56653;SDS011;45096;52.302;4.634;2023-05-03T13:14:40;4.45;;;1.92;;
56653;SDS011;45096;52.302;4.634;2023-05-03T13:17:05;2.42;;;1.90;;
56653;SDS011;45096;52.302;4.634;2023-05-03T13:19:31;2.22;;;1.98;;
56653;SDS011;45096;52.302;4.634;2023-05-03T13:21:56;2.17;;;2.00;;
56653;SDS011;45096;52.302;4.634;2023-05-03T13:24:21;3.70;;;2.10;;
56653;SDS011;45096;52.302;4.634;2023-05-03T13:26:47;3.42;;;2.15;;
56653;SDS011;45096;52.302;4.634;2023-05-03T13:29:12;1.83;;;1.73;;
56653;SDS011;45096;52.302;4.634;2023-05-03T13:31:39;2.00;;;1.80;;
56653;SDS011;45096;52.302;4.634;2023-05-03T13:34:05;2.60;;;2.40;;
56653;SDS011;45096;52.302;4.634;2023-05-03T13:36:30;1.90;;;1.80;;
56653;SDS011;45096;52.302;4.634;2023-05-03T13:38:55;1.88;;;1.58;;
56653;SDS011;45096;52.302;4.634;2023-05-03T13:41:21;3.75;;;1.90;;
56653;SDS011;45096;52.302;4.634;2023-05-03T13:43:47;2.35;;;2.08;;
56653;SDS011;45096;52.302;4.634;2023-05-03T13:46:12;2.08;;;1.83;;
56653;SDS011;45096;52.302;4.634;2023-05-03T13:48:39;2.50;;;1.75;;
56653;SDS011;45096;52.302;4.634;2023-05-03T13:51:07;4.20;;;2.15;;
56653;SDS011;45096;52.302;4.634;2023-05-03T13:53:33;2.08;;;1.60;;
56653;SDS011;45096;52.302;4.634;2023-05-03T13:55:59;3.67;;;1.60;;
56653;SDS011;45096;52.302;4.634;2023-05-03T13:58:24;4.55;;;2.25;;
56653;SDS011;45096;52.302;4.634;2023-05-03T14:00:50;2.78;;;1.70;;
56653;SDS011;45096;52.302;4.634;2023-05-03T14:03:15;2.85;;;1.70;;
56653;SDS011;45096;52.302;4.634;2023-05-03T14:05:42;2.05;;;1.60;;
56653;SDS011;45096;52.302;4.634;2023-05-03T14:08:07;2.15;;;1.90;;
56653;SDS011;45096;52.302;4.634;2023-05-03T14:10:33;2.67;;;2.10;;
56653;SDS011;45096;52.302;4.634;2023-05-03T14:12:58;1.30;;;1.20;;
56653;SDS011;45096;52.302;4.634;2023-05-03T14:15:24;3.25;;;1.40;;
56653;SDS011;45096;52.302;4.634;2023-05-03T14:17:49;1.88;;;1.77;;
56653;SDS011;45096;52.302;4.634;2023-05-03T14:20:15;2.95;;;1.90;;
56653;SDS011;45096;52.302;4.634;2023-05-03T14:22:41;2.20;;;1.98;;
56653;SDS011;45096;52.302;4.634;2023-05-03T14:25:07;4.35;;;2.63;;
56653;SDS011;45096;52.302;4.634;2023-05-03T14:27:33;3.50;;;1.65;;
56653;SDS011;45096;52.302;4.634;2023-05-03T14:29:58;2.50;;;1.80;;
56653;SDS011;45096;52.302;4.634;2023-05-03T14:32:24;2.17;;;1.48;;
56653;SDS011;45096;52.302;4.634;2023-05-03T14:34:49;3.60;;;2.08;;
56653;SDS011;45096;52.302;4.634;2023-05-03T14:37:15;3.08;;;2.10;;
56653;SDS011;45096;52.302;4.634;2023-05-03T14:39:41;1.73;;;1.63;;
56653;SDS011;45096;52.302;4.634;2023-05-03T14:42:08;4.10;;;1.70;;
56653;SDS011;45096;52.302;4.634;2023-05-03T14:44:34;1.95;;;1.77;;
56653;SDS011;45096;52.302;4.634;2023-05-03T14:46:59;3.75;;;1.90;;